• Join FlightAware (Why Join?)
  • Login
  • US Flag 
12:05PM EDT


 

Airport Tracker/Info


-or-


 

Live Flight TrackerFlight Track Log ✈ FSR411 ✈ 16-Jul-2013 ✈ KHYR - KCMI

Flight Track Log - Related Links

Times and Time Zones

All times are in EDT time to prevent confusion due to time zone crossing. See the FSR411 flight status page for this flight to view local times or setup timezone preferences in your user account.

Time Position Orientation Groundspeed Altitude Reporting Facility
EDT Latitude Longitude Course Direction KTS MPH feet Rate Location/Type
07:06PM 45.7989 -91.3364 156° South 264 304 11,400  Level Minneapolis Center
07:07PM 45.7128 -91.2850 157° South 308 354 14,800 2,880 Climbing Minneapolis Center
07:08PM 45.6125 -91.2261 158° South 359 413 17,400 2,400 Climbing Minneapolis Center
07:09PM 45.5019 -91.1619 158° South 403 464 19,800 2,460 Climbing Minneapolis Center
07:10PM 45.4572 -91.1135 145° Southeast  Level Estimated
07:10PM 45.3883 -91.0958 158° South 428 493 22,500  Level Minneapolis Center
07:11PM 45.2742 -91.0303 158° South 437 503 25,200 2,340 Climbing Minneapolis Center
07:13PM 45.0233 -90.8847 158° South 442 509 29,800 1,920 Climbing Minneapolis Center
07:14PM 44.9075 -90.8203 158° South 448 516 31,300 1,380 Climbing Minneapolis Center
07:15PM 44.7828 -90.7492 158° South 455 524 32,700 660 Climbing Minneapolis Center
07:16PM 44.6653 -90.6822 158° South 456 525 32,700  Level Minneapolis Center
07:17PM 44.5492 -90.6175 158° South 457 526 32,800 120 Climbing Minneapolis Center
07:18PM 44.4136 -90.5408 158° South 452 520 33,000 60 Climbing Minneapolis Center
07:19PM 44.2997 -90.4792 159° South 441 507 33,000  Level Minneapolis Center
07:21PM 44.1803 -90.4142 159° South 456 525 33,000  Level Minneapolis Center
07:21PM 44.0842 -90.3608 158° South 455 524 33,000  Level Chicago Center
07:22PM 43.9675 -90.2953 158° South 454 522 33,000  Level Chicago Center
07:24PM 43.8114 -90.2094 158° South 449 517 33,000  Level Minneapolis Center
07:25PM 43.6936 -90.1458 159° South 451 519 33,000  Level Minneapolis Center
07:26PM 43.5958 -90.0944 159° South 453 521 33,000  Level Chicago Center
07:27PM 43.4792 -90.0300 158° South 452 520 33,000  Level Chicago Center
07:28PM 43.3617 -89.9678 159° South 452 520 33,000  Level Chicago Center
07:29PM 43.2244 -89.8931 158° South 456 525 33,000  Level Chicago Center
07:30PM 43.1081 -89.8308 159° South 453 521 33,000  Level Chicago Center
07:31PM 42.9906 -89.7694 159° South 452 520 33,000  Level Chicago Center
07:32PM 42.8744 -89.7058 158° South 451 519 33,000  Level Chicago Center
07:33PM 42.7575 -89.6450 159° South 451 519 33,000  Level Chicago Center
07:34PM 42.6222 -89.5747 159° South 449 517 33,000  Level Chicago Center
07:35PM 42.5056 -89.5131 159° South 449 517 33,000  Level Chicago Center
07:36PM 42.3889 -89.4528 159° South 451 519 33,000  Level Chicago Center
07:37PM 42.2719 -89.3933 159° South 449 517 33,000  Level Chicago Center
07:38PM 42.1347 -89.3219 159° South 452 520 33,000  Level Chicago Center
07:39PM 42.0339 -89.2689 159° South 451 519 33,000  Level Chicago Center
07:40PM 41.8936 -89.1981 159° South 452 520 33,000  Level Chicago Center
07:41PM 41.7781 -89.1378 159° South 451 519 33,000  Level Chicago Center
07:42PM 41.6614 -89.0786 159° South 453 521 33,000 -540 Level Chicago Center
07:43PM 41.5450 -89.0208 160° South 451 519 31,900 -1,380 Descending Chicago Center
07:44PM 41.4278 -88.9617 159° South 456 525 30,200 -1,860 Descending Chicago Center
07:45PM 41.2856 -88.8894 159° South 460 529 28,100 -2,040 Descending Chicago Center
07:46PM 41.1661 -88.8297 159° South 464 534 26,000 -2,280 Descending Chicago Center
07:47PM 41.0494 -88.7711 159° South 457 526 23,500 -2,460 Descending Chicago Center
07:48PM 40.9381 -88.7158 159° South 437 503 21,000 -2,700 Descending Chicago Center
07:49PM 40.8042 -88.6497 160° South 433 498 18,000 -2,580 Descending Chicago Center
07:50PM 40.6986 -88.5967 159° South 414 476 15,700 -2,340 Descending Chicago Center
07:51PM 40.5958 -88.5467 160° South 400 460 13,200 -2,280 Descending Chicago Center
07:52PM 40.4989 -88.4986 159° South 380 437 11,100 -1,200 Descending Chicago Center
07:53PM 40.4150 -88.4578 160° South 329 379 10,800 -1,500 Descending Chicago Center
07:54PM 40.3197 -88.4258 166° South 301 346 8,100 -2,580 Descending Chicago Center
07:56PM 40.2422 -88.4017 167° South 294 338 5,500 -2,400 Descending Chicago Center
07:57PM 40.1725 -88.3761 164° South 268 308 3,100 -1,500 Descending Chicago Center
07:58PM 40.1008 -88.3478 163° South 249 287 2,400 -720 Descending Chicago Center
08:00PM 40.0388 -88.2778 153° Southeast  Level Estimated
08:07PM 40.0388 -88.2778 153° Southeast  Level Estimated
08:08PM 40.0388 -88.2778 153° Southeast  Level Estimated